Time;durP1;ratioP1;P1;durP2;ratioP2;P2;SDS_P1;SDS_P2;PMS_P1;PMS_P2;Temp;Humidity;BMP_temperature;BMP_pressure;BME280_temperature;BME280_humidity;BME280_pressure;Samples;Min_cycle;Max_cycle;Signal;HPM_P1;HPM_P2
2024/01/14 00:00:58;;;;;;;15.02;11.15;;;20.10;99.90;;;;;;5012604;28;20056;-52
2024/01/14 00:03:24;;;;;;;16.77;11.48;;;20.10;99.90;;;;;;5015437;28;20026;-52
2024/01/14 00:05:50;;;;;;;16.02;11.93;;;20.10;99.90;;;;;;5015426;28;20025;-52
2024/01/14 00:08:16;;;;;;;16.48;11.60;;;20.10;99.90;;;;;;5015648;28;20045;-52
2024/01/14 00:10:41;;;;;;;17.75;11.63;;;20.10;99.90;;;;;;5015220;28;20142;-52
2024/01/14 00:13:07;;;;;;;20.02;12.80;;;20.00;99.90;;;;;;5015206;28;20103;-52
2024/01/14 00:15:33;;;;;;;19.70;13.00;;;20.10;99.90;;;;;;5015349;28;20022;-52
2024/01/14 00:17:59;;;;;;;18.05;12.20;;;20.00;99.90;;;;;;5015163;28;20095;-52
2024/01/14 00:20:25;;;;;;;16.70;11.50;;;20.00;99.90;;;;;;5015072;28;20025;-52
2024/01/14 00:22:50;;;;;;;16.60;11.73;;;20.00;99.90;;;;;;5015249;28;20482;-53
2024/01/14 00:25:19;;;;;;;18.67;13.13;;;20.00;99.90;;;;;;5015112;28;20065;-53
2024/01/14 00:27:44;;;;;;;17.50;11.70;;;20.00;99.90;;;;;;5015127;28;20053;-52
2024/01/14 00:30:11;;;;;;;17.17;11.98;;;20.00;99.90;;;;;;5014966;28;20061;-52
2024/01/14 00:32:37;;;;;;;18.52;12.65;;;20.00;99.90;;;;;;5014853;28;20029;-52
2024/01/14 00:35:02;;;;;;;18.67;11.88;;;19.90;99.90;;;;;;5013512;28;20029;-52
2024/01/14 00:37:29;;;;;;;19.70;11.90;;;19.90;99.90;;;;;;5013790;28;20025;-52
2024/01/14 00:39:55;;;;;;;18.38;12.35;;;19.90;99.90;;;;;;5014715;28;20072;-52
2024/01/14 00:42:21;;;;;;;16.67;11.35;;;19.90;99.90;;;;;;5014932;28;20017;-53
2024/01/14 00:44:46;;;;;;;18.15;12.45;;;19.90;99.90;;;;;;5014577;28;20076;-52
2024/01/14 00:47:12;;;;;;;18.98;12.57;;;19.90;99.90;;;;;;5014635;28;20482;-52
2024/01/14 00:49:38;;;;;;;19.65;12.77;;;19.90;99.90;;;;;;5014597;28;20026;-52
2024/01/14 00:52:04;;;;;;;19.10;12.38;;;19.90;99.90;;;;;;5014637;28;20080;-52
2024/01/14 00:54:30;;;;;;;18.15;12.65;;;19.80;99.90;;;;;;5014655;28;20040;-52
2024/01/14 00:56:56;;;;;;;17.40;12.35;;;19.80;99.90;;;;;;5014445;28;20026;-52
2024/01/14 00:59:21;;;;;;;19.83;12.90;;;19.80;99.90;;;;;;5014690;28;20036;-52
2024/01/14 01:01:47;;;;;;;18.48;12.00;;;19.80;99.90;;;;;;5026280;23;20506;-50
2024/01/14 01:04:13;;;;;;;19.05;12.90;;;19.80;99.90;;;;;;5014185;28;20038;-50
2024/01/14 01:06:39;;;;;;;18.25;12.73;;;19.80;99.90;;;;;;5014323;28;20037;-50
2024/01/14 01:09:05;;;;;;;20.63;13.02;;;19.80;99.90;;;;;;5014303;28;20014;-50
2024/01/14 01:11:31;;;;;;;20.17;13.05;;;19.80;99.90;;;;;;5013153;28;20105;-50
2024/01/14 01:13:56;;;;;;;18.33;11.95;;;19.80;99.90;;;;;;5009042;28;20058;-50
2024/01/14 01:16:22;;;;;;;18.45;13.38;;;19.80;99.90;;;;;;4995400;28;20042;-50
2024/01/14 01:18:48;;;;;;;19.35;12.95;;;19.80;99.90;;;;;;5009857;28;20024;-50
2024/01/14 01:21:19;;;;;;;18.20;13.07;;;19.80;99.90;;;;;;5013422;28;20083;-50
2024/01/14 01:23:46;;;;;;;16.98;12.43;;;19.70;99.90;;;;;;5013498;28;20072;-50
2024/01/14 01:26:11;;;;;;;18.42;12.55;;;19.70;99.90;;;;;;5012272;28;20080;-50
2024/01/14 01:28:37;;;;;;;19.00;12.65;;;19.70;99.90;;;;;;5013281;28;20378;-50
2024/01/14 01:31:03;;;;;;;18.20;11.85;;;19.70;99.90;;;;;;5013283;28;20037;-50
2024/01/14 01:33:29;;;;;;;17.88;12.02;;;19.70;99.90;;;;;;5013409;28;20075;-50
2024/01/14 01:35:54;;;;;;;17.90;12.82;;;19.70;99.90;;;;;;5013357;28;20137;-50
2024/01/14 01:38:20;;;;;;;18.88;12.30;;;19.70;99.90;;;;;;5012102;28;20058;-50
2024/01/14 01:40:47;;;;;;;17.35;12.55;;;19.70;99.90;;;;;;5012624;28;20033;-50
2024/01/14 01:43:13;;;;;;;16.65;11.57;;;19.70;99.90;;;;;;5012718;28;20486;-50
2024/01/14 01:45:39;;;;;;;17.10;12.20;;;19.70;99.90;;;;;;5012319;28;20069;-50
2024/01/14 01:48:05;;;;;;;15.45;11.20;;;19.70;99.90;;;;;;5012207;28;20379;-50
2024/01/14 01:50:35;;;;;;;17.35;11.90;;;19.70;99.90;;;;;;5013363;28;20022;-50
2024/01/14 01:53:01;;;;;;;15.50;11.88;;;19.60;99.90;;;;;;5013350;28;20025;-50
2024/01/14 01:55:27;;;;;;;15.20;11.57;;;19.60;99.90;;;;;;5013314;28;20022;-49
2024/01/14 01:57:54;;;;;;;16.40;11.85;;;19.60;99.90;;;;;;5013479;28;20026;-50
2024/01/14 02:00:21;;;;;;;17.13;11.73;;;19.60;99.90;;;;;;5024715;23;20025;-50
2024/01/14 02:02:47;;;;;;;16.30;11.10;;;19.60;99.90;;;;;;5033044;28;20038;-51
2024/01/14 02:05:13;;;;;;;16.27;12.25;;;19.60;99.90;;;;;;5032839;28;20278;-51
2024/01/14 02:07:39;;;;;;;16.40;10.68;;;19.60;99.90;;;;;;5031680;28;20020;-50
2024/01/14 02:10:05;;;;;;;16.23;11.65;;;19.60;99.90;;;;;;5032831;28;20025;-50
2024/01/14 02:12:31;;;;;;;18.33;11.27;;;19.60;99.90;;;;;;5032844;28;20040;-50
2024/01/14 02:14:57;;;;;;;19.92;12.63;;;19.60;99.90;;;;;;5032751;28;20462;-51
2024/01/14 02:17:23;;;;;;;16.65;11.48;;;19.60;99.90;;;;;;5032887;28;20428;-51
2024/01/14 02:19:48;;;;;;;17.17;11.73;;;19.50;99.90;;;;;;5032609;28;20021;-51
2024/01/14 02:22:19;;;;;;;16.27;10.77;;;19.60;99.90;;;;;;5032503;28;20029;-51
2024/01/14 02:24:45;;;;;;;17.58;11.18;;;19.50;99.90;;;;;;5032295;28;20030;-50
2024/01/14 02:27:11;;;;;;;16.83;11.25;;;19.50;99.90;;;;;;5032560;28;20456;-49
2024/01/14 02:29:38;;;;;;;16.75;10.50;;;19.50;99.90;;;;;;5032559;28;20105;-53
2024/01/14 02:32:04;;;;;;;15.95;10.57;;;19.50;99.90;;;;;;5031517;28;20029;-51
2024/01/14 02:34:32;;;;;;;14.85;10.27;;;19.50;99.90;;;;;;5032574;28;20038;-51
2024/01/14 02:37:00;;;;;;;17.25;11.90;;;19.50;99.90;;;;;;5032664;28;20471;-51
2024/01/14 02:39:26;;;;;;;16.33;11.80;;;19.50;99.90;;;;;;5032561;28;20033;-51
2024/01/14 02:41:52;;;;;;;17.50;12.10;;;19.50;99.90;;;;;;5032350;28;20024;-51
2024/01/14 02:44:17;;;;;;;16.52;10.63;;;19.50;99.90;;;;;;5032353;28;20033;-51
2024/01/14 02:46:43;;;;;;;16.40;10.77;;;19.50;99.90;;;;;;5032316;28;20026;-51
2024/01/14 02:49:09;;;;;;;15.60;10.52;;;19.50;99.90;;;;;;5032398;28;20033;-51
2024/01/14 02:51:35;;;;;;;13.10;9.63;;;19.40;99.90;;;;;;5032203;28;20053;-51
2024/01/14 02:54:02;;;;;;;15.13;10.80;;;19.40;99.90;;;;;;5032352;28;20032;-51
2024/01/14 02:56:28;;;;;;;15.47;11.03;;;19.50;99.90;;;;;;5031072;28;20021;-51
2024/01/14 02:58:54;;;;;;;14.57;10.35;;;19.40;99.90;;;;;;5032434;28;20263;-52
2024/01/14 03:01:20;;;;;;;14.85;10.65;;;19.40;99.90;;;;;;5035235;22;20246;-52
2024/01/14 03:03:47;;;;;;;15.30;10.38;;;19.40;99.90;;;;;;5011028;28;20493;-52
2024/01/14 03:06:12;;;;;;;14.13;10.32;;;19.40;99.90;;;;;;5012467;28;20083;-51
2024/01/14 03:08:39;;;;;;;15.35;10.32;;;19.40;99.90;;;;;;5012358;28;20409;-52
2024/01/14 03:11:04;;;;;;;14.40;10.57;;;19.40;99.90;;;;;;5012178;28;20026;-51
2024/01/14 03:13:30;;;;;;;15.60;11.13;;;19.40;99.90;;;;;;5012240;28;20022;-52
2024/01/14 03:15:56;;;;;;;14.85;10.38;;;19.40;99.90;;;;;;5012526;28;20026;-52
2024/01/14 03:18:22;;;;;;;15.27;10.05;;;19.40;99.90;;;;;;5012288;28;20033;-52
2024/01/14 03:20:48;;;;;;;16.27;10.55;;;19.40;99.90;;;;;;5012210;28;20025;-52
2024/01/14 03:23:13;;;;;;;16.00;10.45;;;19.40;99.90;;;;;;5012104;28;20034;-52
2024/01/14 03:25:39;;;;;;;14.27;10.60;;;19.40;99.90;;;;;;5010827;28;20053;-53
2024/01/14 03:28:05;;;;;;;15.52;10.98;;;19.30;99.90;;;;;;5012255;28;20014;-52
2024/01/14 03:30:31;;;;;;;19.00;10.98;;;19.40;99.90;;;;;;5012168;28;20032;-52
2024/01/14 03:32:57;;;;;;;13.48;9.95;;;19.30;99.90;;;;;;5011210;28;20033;-52
2024/01/14 03:35:22;;;;;;;14.23;10.23;;;19.30;99.90;;;;;;5013457;28;20026;-53
2024/01/14 03:37:48;;;;;;;16.17;10.60;;;19.30;99.90;;;;;;5015977;28;20026;-52
2024/01/14 03:40:14;;;;;;;25.77;10.93;;;19.30;99.90;;;;;;5016167;28;20092;-53
2024/01/14 03:42:40;;;;;;;18.30;10.20;;;19.30;99.90;;;;;;5015834;28;20359;-53
2024/01/14 03:45:06;;;;;;;15.88;10.43;;;19.30;99.90;;;;;;5015743;28;20033;-53
2024/01/14 03:47:32;;;;;;;20.70;10.85;;;19.30;99.90;;;;;;5015844;28;20133;-52
2024/01/14 03:49:58;;;;;;;19.90;10.38;;;19.30;99.90;;;;;;5015829;28;20105;-52
2024/01/14 03:52:23;;;;;;;16.05;9.52;;;19.30;99.90;;;;;;5014305;28;20022;-53
2024/01/14 03:54:50;;;;;;;13.85;9.48;;;19.30;99.90;;;;;;5015656;28;20034;-53
2024/01/14 03:57:16;;;;;;;15.95;10.38;;;19.30;99.90;;;;;;5014500;28;20018;-52
2024/01/14 03:59:42;;;;;;;16.08;10.07;;;19.30;99.90;;;;;;5015631;28;20034;-52
2024/01/14 04:02:08;;;;;;;16.95;10.15;;;19.30;99.90;;;;;;5027743;22;20199;-52
2024/01/14 04:04:33;;;;;;;16.67;10.45;;;19.30;99.90;;;;;;5015411;28;20108;-49
2024/01/14 04:06:59;;;;;;;15.68;9.57;;;19.30;99.90;;;;;;5015565;28;20072;-51
2024/01/14 04:09:25;;;;;;;16.30;9.73;;;19.20;99.90;;;;;;5015280;28;20450;-50
2024/01/14 04:11:51;;;;;;;17.02;11.07;;;19.20;99.90;;;;;;5015367;28;20100;-49
2024/01/14 04:14:16;;;;;;;14.60;9.50;;;19.20;99.90;;;;;;5015569;28;20105;-49
2024/01/14 04:16:42;;;;;;;14.45;9.75;;;19.20;99.90;;;;;;5015376;28;20026;-49
2024/01/14 04:19:08;;;;;;;15.32;9.27;;;19.20;99.90;;;;;;5015130;28;20022;-52
2024/01/14 04:21:34;;;;;;;17.15;9.82;;;19.20;99.90;;;;;;5015117;28;20057;-50
2024/01/14 04:24:03;;;;;;;17.92;9.10;;;19.20;99.90;;;;;;5014788;28;20034;-51
2024/01/14 04:26:29;;;;;;;14.23;9.73;;;19.20;99.90;;;;;;5015126;28;20080;-49
2024/01/14 04:28:55;;;;;;;16.85;9.57;;;19.20;99.90;;;;;;5013718;28;20402;-49
2024/01/14 04:31:21;;;;;;;18.75;9.68;;;19.20;99.90;;;;;;5014928;28;20106;-50
2024/01/14 04:33:48;;;;;;;14.60;10.15;;;19.10;99.90;;;;;;5013944;28;20517;-49
2024/01/14 04:36:17;;;;;;;14.68;9.88;;;19.10;99.90;;;;;;5014945;28;20030;-50
2024/01/14 04:38:43;;;;;;;14.40;10.15;;;19.10;99.90;;;;;;5014846;28;20033;-50
2024/01/14 04:41:09;;;;;;;13.50;9.88;;;19.10;99.90;;;;;;5014748;28;20029;-49
2024/01/14 04:43:38;;;;;;;15.00;9.88;;;19.10;99.90;;;;;;5014735;28;20029;-49
2024/01/14 04:46:09;;;;;;;18.30;9.77;;;19.10;99.90;;;;;;5014293;28;20037;-49
2024/01/14 04:48:34;;;;;;;18.77;10.20;;;19.10;99.90;;;;;;5014656;28;20040;-50
2024/01/14 04:51:00;;;;;;;17.20;10.05;;;19.10;99.90;;;;;;5014695;28;20477;-50
2024/01/14 04:53:27;;;;;;;13.48;9.15;;;19.10;99.90;;;;;;5014713;28;20080;-49
2024/01/14 04:55:53;;;;;;;14.00;9.25;;;19.00;99.90;;;;;;5013245;28;20045;-50
2024/01/14 04:58:19;;;;;;;14.95;9.70;;;19.00;99.90;;;;;;5014753;28;20084;-50
2024/01/14 05:00:44;;;;;;;14.23;9.35;;;19.10;99.90;;;;;;5013441;28;20026;-50
2024/01/14 05:03:10;;;;;;;13.63;8.32;;;19.00;99.90;;;;;;5014364;28;20478;-50
2024/01/14 05:05:36;;;;;;;17.15;9.27;;;19.00;99.90;;;;;;5014268;28;20432;-50
2024/01/14 05:08:02;;;;;;;14.98;9.18;;;19.00;99.90;;;;;;5013183;28;20025;-51
2024/01/14 05:10:28;;;;;;;12.52;9.20;;;19.00;99.90;;;;;;5014305;28;20058;-50
2024/01/14 05:12:53;;;;;;;12.68;8.50;;;19.00;99.90;;;;;;5014375;28;20608;-50
2024/01/14 05:15:19;;;;;;;15.48;10.15;;;19.00;99.90;;;;;;5014322;28;20026;-50
2024/01/14 05:17:45;;;;;;;12.68;9.18;;;19.00;99.90;;;;;;5014086;28;20080;-50
2024/01/14 05:20:11;;;;;;;18.65;10.32;;;19.00;99.90;;;;;;5014048;28;20065;-50
2024/01/14 05:22:37;;;;;;;16.67;9.98;;;18.90;99.90;;;;;;5014190;28;20464;-50
2024/01/14 05:25:04;;;;;;;14.15;9.60;;;19.00;99.90;;;;;;5014083;28;20109;-50
2024/01/14 05:27:30;;;;;;;14.30;9.65;;;18.90;99.90;;;;;;5014014;28;20045;-50
2024/01/14 05:29:55;;;;;;;13.70;9.27;;;18.90;99.90;;;;;;5013908;28;20176;-50
2024/01/14 05:32:21;;;;;;;13.02;8.98;;;18.90;99.90;;;;;;5014239;28;20026;-50
2024/01/14 05:34:47;;;;;;;16.30;9.15;;;18.90;99.90;;;;;;5013769;28;20058;-50
2024/01/14 05:37:13;;;;;;;13.20;8.52;;;18.90;99.90;;;;;;5013827;28;20029;-50
2024/01/14 05:39:39;;;;;;;14.25;9.40;;;18.90;99.90;;;;;;5013767;28;20386;-50
2024/01/14 05:42:05;;;;;;;15.65;9.45;;;18.90;99.90;;;;;;5013691;28;20029;-50
2024/01/14 05:44:31;;;;;;;16.83;9.18;;;18.90;99.90;;;;;;5012443;28;20393;-50
2024/01/14 05:46:57;;;;;;;15.52;9.73;;;18.90;99.90;;;;;;5013626;28;20018;-50
2024/01/14 05:49:23;;;;;;;12.80;8.73;;;18.90;99.90;;;;;;5012462;28;20033;-50
2024/01/14 05:51:49;;;;;;;14.02;8.18;;;18.90;99.90;;;;;;5012432;28;20022;-50
2024/01/14 05:54:15;;;;;;;14.45;9.07;;;18.90;99.90;;;;;;5013501;28;20041;-50
2024/01/14 05:56:41;;;;;;;12.23;9.15;;;18.90;99.90;;;;;;5013323;28;20017;-50
2024/01/14 05:59:07;;;;;;;14.27;9.48;;;18.90;99.90;;;;;;5012625;28;20057;-51
2024/01/14 06:01:33;;;;;;;14.48;8.40;;;18.80;99.90;;;;;;5012522;28;20073;-50
2024/01/14 06:03:59;;;;;;;11.52;8.35;;;18.80;99.90;;;;;;5013142;28;20084;-50
2024/01/14 06:06:24;;;;;;;12.85;8.80;;;18.80;99.90;;;;;;5013554;28;20542;-50
2024/01/14 06:08:50;;;;;;;12.15;8.75;;;18.80;99.90;;;;;;5013107;28;20097;-50
2024/01/14 06:11:16;;;;;;;12.27;8.80;;;18.80;99.90;;;;;;5011255;28;20033;-50
2024/01/14 06:13:42;;;;;;;11.88;7.93;;;18.80;99.90;;;;;;5013076;28;20030;-50
2024/01/14 06:16:09;;;;;;;13.13;8.43;;;18.80;99.90;;;;;;5013103;28;20189;-51
2024/01/14 06:18:35;;;;;;;13.10;8.05;;;18.80;99.90;;;;;;5013038;28;20470;-51
2024/01/14 06:21:01;;;;;;;11.63;7.60;;;18.80;99.90;;;;;;5013045;28;20417;-50
2024/01/14 06:23:28;;;;;;;11.43;8.07;;;18.80;99.90;;;;;;5012816;28;20041;-50
2024/01/14 06:25:54;;;;;;;12.93;8.05;;;18.80;99.90;;;;;;5011748;28;20130;-50
2024/01/14 06:28:20;;;;;;;11.73;8.57;;;18.80;99.90;;;;;;5012899;28;20069;-51
2024/01/14 06:30:46;;;;;;;13.43;8.20;;;18.80;99.90;;;;;;5013286;28;20025;-50
2024/01/14 06:33:12;;;;;;;13.45;8.75;;;18.80;99.90;;;;;;5011513;28;20052;-50
2024/01/14 06:35:38;;;;;;;13.90;8.18;;;18.80;99.90;;;;;;5012728;28;20022;-51
2024/01/14 06:38:04;;;;;;;12.18;8.27;;;18.80;99.90;;;;;;5012699;28;20489;-50
2024/01/14 06:40:30;;;;;;;10.88;8.02;;;18.80;99.90;;;;;;5012673;28;20033;-50
2024/01/14 06:42:56;;;;;;;13.73;8.80;;;18.80;99.90;;;;;;5012951;28;20037;-51
2024/01/14 06:45:21;;;;;;;14.38;8.85;;;18.70;99.90;;;;;;5012520;28;20473;-51
2024/01/14 06:47:47;;;;;;;11.35;6.65;;;18.80;99.90;;;;;;5012460;28;20029;-50
2024/01/14 06:50:13;;;;;;;13.70;8.63;;;18.80;99.90;;;;;;5012538;28;20113;-51
2024/01/14 06:52:39;;;;;;;14.77;8.65;;;18.70;99.90;;;;;;5012663;28;20026;-51
2024/01/14 06:55:06;;;;;;;11.27;7.32;;;18.70;99.90;;;;;;5011513;28;20048;-50
2024/01/14 06:57:32;;;;;;;12.13;7.53;;;18.70;99.90;;;;;;5012417;28;20032;-50
2024/01/14 07:00:05;;;;;;;12.18;8.05;;;18.70;99.90;;;;;;5012642;28;20022;-50
2024/01/14 07:02:31;;;;;;;12.23;7.78;;;18.70;99.90;;;;;;5012487;28;20054;-51
2024/01/14 07:04:57;;;;;;;12.90;7.97;;;18.70;99.90;;;;;;5012563;28;20034;-51
2024/01/14 07:07:23;;;;;;;11.63;8.18;;;18.70;99.90;;;;;;5012519;28;20516;-50
2024/01/14 07:09:49;;;;;;;10.57;7.40;;;18.70;99.90;;;;;;5013240;28;20038;-51
2024/01/14 07:12:14;;;;;;;12.27;7.97;;;18.70;99.90;;;;;;5016470;28;20430;-50
2024/01/14 07:14:41;;;;;;;12.27;7.05;;;18.70;99.90;;;;;;5016429;28;20428;-50
2024/01/14 07:17:07;;;;;;;9.38;6.70;;;18.70;99.90;;;;;;5016376;28;20065;-51
2024/01/14 07:19:35;;;;;;;13.05;8.02;;;18.70;99.90;;;;;;5016427;28;20097;-51
2024/01/14 07:22:01;;;;;;;12.98;7.78;;;18.70;99.90;;;;;;5016310;28;20025;-50
2024/01/14 07:24:27;;;;;;;13.32;8.05;;;18.70;99.90;;;;;;5016504;28;20371;-50
2024/01/14 07:26:52;;;;;;;13.15;7.93;;;18.70;99.90;;;;;;5014938;28;20037;-51
2024/01/14 07:29:18;;;;;;;11.93;7.70;;;18.60;99.90;;;;;;5014830;28;20395;-51
2024/01/14 07:31:44;;;;;;;11.40;7.50;;;18.60;99.90;;;;;;5016012;28;20029;-51
2024/01/14 07:34:10;;;;;;;11.70;7.35;;;18.60;99.90;;;;;;5016192;28;20032;-51
2024/01/14 07:36:36;;;;;;;14.45;7.53;;;18.70;99.90;;;;;;5016130;28;20025;-50
2024/01/14 07:39:03;;;;;;;11.98;7.60;;;18.60;99.90;;;;;;5016097;28;20026;-51
2024/01/14 07:41:29;;;;;;;11.80;7.57;;;18.60;99.90;;;;;;5016388;28;20058;-51
2024/01/14 07:43:54;;;;;;;11.65;7.18;;;18.70;99.90;;;;;;5015756;28;20326;-50
2024/01/14 07:46:20;;;;;;;12.23;7.03;;;18.60;99.90;;;;;;5015805;28;20029;-51
2024/01/14 07:48:46;;;;;;;13.70;6.93;;;18.60;99.90;;;;;;5014555;28;20505;-50
2024/01/14 07:51:12;;;;;;;11.40;6.97;;;18.60;99.90;;;;;;5015726;28;20026;-50
2024/01/14 07:53:38;;;;;;;11.30;7.05;;;18.60;99.90;;;;;;5015732;28;20022;-50
2024/01/14 07:56:04;;;;;;;12.80;7.50;;;18.70;99.90;;;;;;5014509;28;20109;-50
2024/01/14 07:58:30;;;;;;;11.68;8.23;;;18.70;99.90;;;;;;5015675;28;20076;-51
2024/01/14 08:00:56;;;;;;;10.50;6.78;;;18.70;99.90;;;;;;5015739;28;20041;-50
2024/01/14 08:03:22;;;;;;;11.05;6.70;;;18.60;99.90;;;;;;5015485;28;20025;-50
2024/01/14 08:05:48;;;;;;;10.80;7.10;;;18.60;99.90;;;;;;5015399;28;20033;-50
2024/01/14 08:08:14;;;;;;;13.02;7.00;;;18.60;99.90;;;;;;5014325;28;20056;-51
2024/01/14 08:10:39;;;;;;;11.40;7.35;;;18.70;99.90;;;;;;5015469;28;20100;-51
2024/01/14 08:13:05;;;;;;;12.40;7.28;;;18.70;99.90;;;;;;5015380;28;20036;-51
2024/01/14 08:15:31;;;;;;;10.77;7.18;;;18.70;99.90;;;;;;5015429;28;20116;-51
2024/01/14 08:17:57;;;;;;;10.60;7.30;;;18.70;99.90;;;;;;5015628;28;20105;-51
2024/01/14 08:20:25;;;;;;;10.55;7.22;;;18.70;99.90;;;;;;5013455;28;20129;-51
2024/01/14 08:22:53;;;;;;;10.55;6.80;;;18.70;99.90;;;;;;5014924;28;20375;-50
2024/01/14 08:25:20;;;;;;;12.07;7.75;;;18.80;99.90;;;;;;5015060;28;20034;-51
2024/01/14 08:27:46;;;;;;;9.70;6.75;;;18.80;99.90;;;;;;5015032;28;20022;-51
2024/01/14 08:30:14;;;;;;;10.30;6.68;;;18.80;99.90;;;;;;5015103;28;20041;-50
2024/01/14 08:32:40;;;;;;;8.20;5.90;;;18.80;99.90;;;;;;5014754;28;20381;-50
2024/01/14 08:35:06;;;;;;;10.00;6.68;;;18.80;99.90;;;;;;5014876;28;20037;-51
2024/01/14 08:37:31;;;;;;;11.93;6.93;;;18.80;99.90;;;;;;5013735;28;20021;-50
2024/01/14 08:39:57;;;;;;;10.45;6.70;;;18.90;99.90;;;;;;5014778;28;20033;-50
2024/01/14 08:42:23;;;;;;;13.27;7.55;;;18.90;99.90;;;;;;5014704;28;20029;-50
2024/01/14 08:44:49;;;;;;;10.07;6.28;;;18.90;99.90;;;;;;5014689;28;20038;-51
2024/01/14 08:47:15;;;;;;;10.80;7.07;;;18.90;99.90;;;;;;5014793;28;20037;-51
2024/01/14 08:49:40;;;;;;;11.40;6.82;;;19.00;99.90;;;;;;5014663;28;20034;-50
2024/01/14 08:52:07;;;;;;;9.27;5.95;;;19.00;99.90;;;;;;5014651;28;20022;-50
2024/01/14 08:54:34;;;;;;;9.93;6.53;;;19.00;99.90;;;;;;5014901;28;20049;-51
2024/01/14 08:57:00;;;;;;;11.30;6.70;;;19.00;99.90;;;;;;5014786;28;20030;-51
2024/01/14 08:59:26;;;;;;;10.90;6.63;;;19.00;99.90;;;;;;5014526;28;20029;-51
2024/01/14 09:01:52;;;;;;;8.88;5.90;;;19.00;99.90;;;;;;5012926;28;20185;-50
2024/01/14 09:04:19;;;;;;;10.15;6.25;;;19.10;99.90;;;;;;5014284;28;20334;-51
2024/01/14 09:06:45;;;;;;;11.77;6.23;;;19.00;99.90;;;;;;5014488;28;20445;-51
2024/01/14 09:09:12;;;;;;;8.75;6.47;;;19.10;99.90;;;;;;5014437;28;20097;-50
2024/01/14 09:11:38;;;;;;;9.98;6.78;;;19.10;99.90;;;;;;5014422;28;20021;-50
2024/01/14 09:14:05;;;;;;;9.68;6.35;;;19.10;99.90;;;;;;5014378;28;20036;-51
2024/01/14 09:16:31;;;;;;;10.30;5.85;;;19.10;99.90;;;;;;5014512;28;20101;-51
2024/01/14 09:18:56;;;;;;;9.50;6.30;;;19.10;99.90;;;;;;5014152;28;20080;-51
2024/01/14 09:21:23;;;;;;;10.45;6.53;;;19.20;99.90;;;;;;5012859;28;20026;-51
2024/01/14 09:23:48;;;;;;;8.90;5.95;;;19.10;99.90;;;;;;5013876;28;20030;-51
2024/01/14 09:26:14;;;;;;;11.20;6.40;;;19.20;99.90;;;;;;5013864;28;20037;-51
2024/01/14 09:28:40;;;;;;;9.93;6.00;;;19.20;99.90;;;;;;5013814;28;20021;-51
2024/01/14 09:31:07;;;;;;;8.90;6.30;;;19.20;99.90;;;;;;5013692;28;20029;-50
2024/01/14 09:33:32;;;;;;;8.23;5.93;;;19.30;99.90;;;;;;5013057;28;20026;-51
2024/01/14 09:36:09;;;;;;;8.50;6.13;;;19.30;99.90;;;;;;5013701;28;20022;-51
2024/01/14 09:38:35;;;;;;;7.63;5.60;;;19.30;99.90;;;;;;5013893;28;20359;-51
2024/01/14 09:41:36;;;;;;;9.75;5.57;;;19.30;99.90;;;;;;5012507;28;20026;-51
2024/01/14 09:44:03;;;;;;;8.48;6.03;;;19.30;99.90;;;;;;5013713;28;20087;-51
2024/01/14 09:46:30;;;;;;;11.93;6.33;;;19.40;99.90;;;;;;5013696;28;20417;-51
2024/01/14 09:48:56;;;;;;;10.25;6.80;;;19.40;99.90;;;;;;5013656;28;20026;-50
2024/01/14 09:51:30;;;;;;;10.88;6.20;;;19.50;99.90;;;;;;5013557;28;20412;-52
2024/01/14 09:53:58;;;;;;;11.82;5.80;;;19.50;99.90;;;;;;5013408;28;20035;-51
2024/01/14 09:56:25;;;;;;;11.07;6.00;;;19.50;99.90;;;;;;5013371;28;20486;-57
2024/01/14 09:58:54;;;;;;;9.40;6.22;;;19.50;99.90;;;;;;5013260;28;20022;-51
2024/01/14 10:01:22;;;;;;;8.30;5.63;;;19.60;99.90;;;;;;5013269;28;20068;-51
2024/01/14 10:03:50;;;;;;;9.50;5.65;;;19.60;99.90;;;;;;5013315;28;20022;-50
2024/01/14 10:06:15;;;;;;;;;;;19.60;99.90;;;;;;5013754;28;20072;-51
2024/01/14 10:08:41;;;;;;;9.57;5.78;;;19.70;99.90;;;;;;5013193;28;19905;-51
2024/01/14 10:11:07;;;;;;;10.68;5.78;;;19.70;99.90;;;;;;5013493;28;20052;-51
2024/01/14 10:13:34;;;;;;;9.18;5.63;;;19.70;99.90;;;;;;5013326;28;20026;-51
2024/01/14 10:16:04;;;;;;;8.40;5.82;;;19.70;99.90;;;;;;5013043;28;20026;-51
2024/01/14 10:18:30;;;;;;;8.70;5.90;;;19.80;99.90;;;;;;5013023;28;20060;-51
2024/01/14 10:20:57;;;;;;;11.60;5.57;;;19.80;99.90;;;;;;5011726;28;20057;-52
2024/01/14 10:23:23;;;;;;;8.30;5.45;;;19.80;99.90;;;;;;5012986;28;20029;-51
2024/01/14 10:25:51;;;;;;;8.73;6.18;;;19.90;99.90;;;;;;5012936;28;20046;-51
2024/01/14 10:28:18;;;;;;;12.18;5.75;;;19.90;99.90;;;;;;5012955;28;20382;-51
2024/01/14 10:30:44;;;;;;;9.70;5.55;;;19.90;99.90;;;;;;5012845;28;20033;-51
2024/01/14 10:33:10;;;;;;;9.25;5.68;;;19.90;99.90;;;;;;5012689;28;20030;-52
2024/01/14 10:35:38;;;;;;;10.30;5.50;;;20.00;99.90;;;;;;5011608;28;20025;-51
2024/01/14 10:38:04;;;;;;;;;;;20.00;99.90;;;;;;5012035;28;20106;-51
2024/01/14 10:40:30;;;;;;;8.50;5.70;;;20.10;99.90;;;;;;5012657;28;20308;-51
2024/01/14 10:42:57;;;;;;;11.68;5.57;;;20.10;99.90;;;;;;5012751;28;20386;-51
2024/01/14 10:45:23;;;;;;;8.45;5.70;;;20.20;99.90;;;;;;5012210;28;20036;-51
2024/01/14 10:47:55;;;;;;;9.63;5.57;;;20.20;99.90;;;;;;5012481;28;20129;-51
2024/01/14 10:50:26;;;;;;;11.30;5.55;;;20.20;99.90;;;;;;5012670;28;20049;-51
2024/01/14 10:52:56;;;;;;;10.13;5.40;;;20.20;99.90;;;;;;5011256;28;20112;-51
2024/01/14 10:55:34;;;;;;;8.20;5.47;;;20.30;99.90;;;;;;5012474;28;20032;-50
2024/01/14 10:58:03;;;;;;;11.38;5.85;;;20.30;99.90;;;;;;5011058;28;20029;-51
2024/01/14 11:00:34;;;;;;;10.38;5.90;;;20.30;99.90;;;;;;5012532;28;20373;-52
2024/01/14 11:03:03;;;;;;;8.68;5.82;;;20.40;99.90;;;;;;5012282;28;20030;-52
2024/01/14 11:05:32;;;;;;;9.43;5.47;;;20.40;99.90;;;;;;5012278;28;20048;-51
2024/01/14 11:07:59;;;;;;;9.50;6.40;;;20.40;99.90;;;;;;5012315;28;20056;-52
2024/01/14 11:10:25;;;;;;;10.82;6.40;;;20.50;99.90;;;;;;5011086;28;20021;-51
2024/01/14 11:13:08;;;;;;;8.13;5.38;;;20.50;99.90;;;;;;5012463;28;20033;-51
2024/01/14 11:16:03;;;;;;;8.18;5.60;;;20.50;99.90;;;;;;5010958;28;20022;-51
2024/01/14 11:18:43;;;;;;;9.02;5.50;;;20.60;99.90;;;;;;5012340;28;20025;-51
2024/01/14 11:21:27;;;;;;;9.68;5.80;;;20.60;99.90;;;;;;5012540;28;20521;-52
2024/01/14 11:23:54;;;;;;;9.65;5.45;;;20.70;99.90;;;;;;5012127;28;20046;-53
2024/01/14 11:26:24;;;;;;;9.82;5.93;;;20.70;99.90;;;;;;5012316;28;20537;-51
2024/01/14 11:28:50;;;;;;;9.05;5.40;;;20.70;99.90;;;;;;5012070;28;20040;-52
2024/01/14 11:31:17;;;;;;;14.07;5.63;;;20.80;99.90;;;;;;5011045;28;20025;-51
2024/01/14 11:33:46;;;;;;;12.93;6.25;;;20.80;99.90;;;;;;5011201;28;20437;-52
2024/01/14 11:36:13;;;;;;;10.05;5.55;;;20.80;99.90;;;;;;5011152;28;20022;-52
2024/01/14 11:38:45;;;;;;;10.07;6.25;;;20.90;99.90;;;;;;5011318;28;20069;-51
2024/01/14 11:41:30;;;;;;;12.88;6.63;;;20.90;99.90;;;;;;5012199;28;20029;-51
2024/01/14 11:44:10;;;;;;;10.50;6.35;;;20.90;99.90;;;;;;5012046;28;20021;-52
2024/01/14 11:46:36;;;;;;;10.88;6.75;;;20.90;99.90;;;;;;5012061;28;20041;-52
2024/01/14 11:49:17;;;;;;;7.47;5.65;;;21.00;99.90;;;;;;5011974;28;20081;-52
2024/01/14 11:51:57;;;;;;;12.38;5.53;;;21.00;99.90;;;;;;5012254;28;20018;-52
2024/01/14 11:54:24;;;;;;;10.52;6.55;;;21.10;99.90;;;;;;5011976;28;20022;-51
2024/01/14 11:56:50;;;;;;;11.85;6.13;;;21.10;99.90;;;;;;5013819;28;20033;-51
2024/01/14 11:59:17;;;;;;;10.07;5.90;;;21.10;99.90;;;;;;5015633;28;20033;-52
2024/01/14 12:01:43;;;;;;;13.85;6.85;;;21.20;99.90;;;;;;5015725;28;20046;-52
2024/01/14 12:04:09;;;;;;;12.07;6.60;;;21.20;99.90;;;;;;5015537;28;20532;-51
2024/01/14 12:06:47;;;;;;;10.32;6.15;;;21.20;99.90;;;;;;5015398;28;20084;-52
2024/01/14 12:09:14;;;;;;;11.95;7.35;;;21.20;99.90;;;;;;5014447;28;20018;-51
2024/01/14 12:11:41;;;;;;;17.60;8.10;;;21.30;99.90;;;;;;5015452;28;20033;-51
2024/01/14 12:14:07;;;;;;;16.20;6.78;;;21.30;99.90;;;;;;5015324;28;20259;-52
2024/01/14 12:16:34;;;;;;;11.07;6.45;;;21.40;99.90;;;;;;5015259;28;20061;-52
2024/01/14 12:19:17;;;;;;;11.52;6.80;;;21.40;99.90;;;;;;5015241;28;20025;-52
2024/01/14 12:21:43;;;;;;;15.32;6.57;;;21.40;99.90;;;;;;5015581;28;20025;-52
2024/01/14 12:24:11;;;;;;;8.63;5.82;;;21.40;99.90;;;;;;5015015;28;20068;-51
2024/01/14 12:26:37;;;;;;;13.50;8.18;;;21.40;99.90;;;;;;5015188;28;20037;-52
2024/01/14 12:29:03;;;;;;;11.75;7.18;;;21.50;99.90;;;;;;5015133;28;20069;-51
2024/01/14 12:31:32;;;;;;;15.68;7.55;;;21.50;99.90;;;;;;5015025;28;20022;-51
2024/01/14 12:34:03;;;;;;;14.55;7.32;;;21.50;99.90;;;;;;5014997;28;20022;-51